createdAt,value
2019-02-08T00:02:00.559Z,66.94
2019-02-08T00:04:30.929Z,66.87
2019-02-08T00:07:01.263Z,67.21
2019-02-08T00:09:31.939Z,67.92
2019-02-08T00:12:02.268Z,66.93
2019-02-08T00:14:33.007Z,66.59
2019-02-08T00:17:03.903Z,66.25
2019-02-08T00:19:35.166Z,66.36
2019-02-08T00:22:07.798Z,66.36
2019-02-08T00:24:38.395Z,66.50
2019-02-08T00:27:08.783Z,66.26
2019-02-08T00:29:39.644Z,66.45
2019-02-08T00:32:09.996Z,66.20
2019-02-08T00:34:40.251Z,65.76
2019-02-08T00:37:10.919Z,66.17
2019-02-08T00:39:41.666Z,66.30
2019-02-08T00:42:11.937Z,66.84
2019-02-08T00:44:42.559Z,67.12
2019-02-08T00:47:12.826Z,67.30
2019-02-08T00:49:44.442Z,67.77
2019-02-08T00:52:15.666Z,67.42
2019-02-08T00:54:45.969Z,67.80
2019-02-08T00:57:16.270Z,67.90
2019-02-08T00:59:47.228Z,67.89
2019-02-08T01:02:17.496Z,67.25
2019-02-08T01:04:47.794Z,67.84
2019-02-08T01:07:18.733Z,67.38
2019-02-08T01:09:49.245Z,67.21
2019-02-08T01:12:19.527Z,67.86
2019-02-08T01:14:50.249Z,68.12
2019-02-08T01:17:20.844Z,68.02
2019-02-08T01:19:51.357Z,67.58
2019-02-08T01:22:22.111Z,67.96
2019-02-08T01:24:52.756Z,68.12
2019-02-08T01:27:23.038Z,68.11
2019-02-08T01:29:53.469Z,67.96
2019-02-08T01:32:24.229Z,67.09
2019-02-08T01:34:54.544Z,67.05
2019-02-08T01:37:24.851Z,66.95
2019-02-08T01:39:55.654Z,67.08
2019-02-08T01:42:25.953Z,66.63
2019-02-08T01:44:56.234Z,67.10
2019-02-08T01:47:26.997Z,67.14
2019-02-08T01:49:57.573Z,66.91
2019-02-08T01:52:28.266Z,66.72
2019-02-08T01:54:58.590Z,67.36
2019-02-08T01:57:28.870Z,67.17
2019-02-08T01:59:59.684Z,67.08
2019-02-08T02:02:30.617Z,66.61
2019-02-08T02:05:01.188Z,66.96
2019-02-08T02:07:31.751Z,67.05
2019-02-08T02:10:02.289Z,67.21
2019-02-08T02:12:32.576Z,67.68
2019-02-08T02:15:03.393Z,67.61
2019-02-08T02:17:33.767Z,67.56
2019-02-08T02:20:05.566Z,67.39
2019-02-08T02:22:35.831Z,67.76
2019-02-08T02:25:07.405Z,67.74
2019-02-08T02:27:37.758Z,67.33
2019-02-08T02:30:10.176Z,67.39
2019-02-08T02:32:40.436Z,67.36
2019-02-08T02:35:12.450Z,67.74
2019-02-08T02:37:43.369Z,67.49
2019-02-08T02:40:14.425Z,67.94
2019-02-08T02:42:45.451Z,67.71
2019-02-08T02:45:19.529Z,67.66
2019-02-08T02:47:50.014Z,67.49
2019-02-08T02:50:21.244Z,67.34
2019-02-08T02:52:51.550Z,67.12
2019-02-08T02:55:23.717Z,67.16
2019-02-08T02:57:54.094Z,66.91
2019-02-08T03:00:36.554Z,66.90
2019-02-08T03:03:07.237Z,67.76
2019-02-08T03:05:38.414Z,67.75
2019-02-08T03:08:09.784Z,68.15
2019-02-08T03:10:40.199Z,67.84
2019-02-08T03:13:11.598Z,67.93
2019-02-08T03:15:42.057Z,68.02
2019-02-08T03:18:12.419Z,68.68
2019-02-08T03:20:43.126Z,68.16
2019-02-08T03:23:13.461Z,67.79
2019-02-08T03:25:44.407Z,68.66
2019-02-08T03:28:15.662Z,67.95
2019-02-08T03:30:49.310Z,68.09
2019-02-08T03:33:20.128Z,67.38
2019-02-08T03:35:50.631Z,67.75
2019-02-08T03:38:20.919Z,68.24
2019-02-08T03:40:51.710Z,68.97
2019-02-08T03:43:22.001Z,68.45
2019-02-08T03:45:53.683Z,68.81
2019-02-08T03:48:24.298Z,69.31
2019-02-08T03:50:54.800Z,69.12
2019-02-08T03:53:25.070Z,68.85
2019-02-08T03:55:58.527Z,67.76
2019-02-08T03:58:27.722Z,67.26
2019-02-08T04:01:00.831Z,67.59
2019-02-08T04:03:31.434Z,67.66
2019-02-08T04:06:02.056Z,67.10
2019-02-08T04:08:32.738Z,66.87
2019-02-08T04:11:03.146Z,66.82
2019-02-08T04:13:33.462Z,67.47
2019-02-08T04:16:05.747Z,67.91
2019-02-08T04:18:36.394Z,67.41
2019-02-08T04:21:06.670Z,67.44
2019-02-08T04:23:37.481Z,68.12
2019-02-08T04:26:07.851Z,68.07
2019-02-08T04:28:38.164Z,68.27
2019-02-08T04:31:08.474Z,67.81
2019-02-08T04:33:39.017Z,67.54
2019-02-08T04:36:09.572Z,67.28
2019-02-08T04:38:40.350Z,67.48
2019-02-08T04:41:10.627Z,67.60
2019-02-08T04:43:41.512Z,67.51
2019-02-08T04:46:11.907Z,67.37
2019-02-08T04:48:42.194Z,67.81
2019-02-08T04:51:12.629Z,67.54
2019-02-08T04:53:43.293Z,67.16
2019-02-08T04:56:13.562Z,67.40
2019-02-08T04:58:43.869Z,67.41
2019-02-08T05:01:14.265Z,67.56
2019-02-08T05:03:45.045Z,67.56
2019-02-08T05:06:15.613Z,67.55
2019-02-08T05:08:46.147Z,67.80
2019-02-08T05:11:16.599Z,67.60
2019-02-08T05:13:47.357Z,67.58
2019-02-08T05:16:17.629Z,67.11
2019-02-08T05:18:48.135Z,67.00
2019-02-08T05:21:18.604Z,65.73
2019-02-08T05:23:48.915Z,65.42
2019-02-08T05:26:19.167Z,65.25
2019-02-08T05:28:49.724Z,65.02
2019-02-08T05:31:20.152Z,65.42
2019-02-08T05:33:51.650Z,65.36
2019-02-08T05:36:22.493Z,65.60
2019-02-08T05:38:53.317Z,65.51
2019-02-08T05:41:23.762Z,65.40
2019-02-08T05:43:54.443Z,64.80
2019-02-08T05:46:25.039Z,64.71
2019-02-08T05:48:55.362Z,64.69
2019-02-08T05:51:25.788Z,64.79
2019-02-08T05:53:56.248Z,64.53
2019-02-08T05:56:26.517Z,64.78
2019-02-08T05:58:56.856Z,63.76
2019-02-08T06:01:27.495Z,63.88
2019-02-08T06:03:57.802Z,63.92
2019-02-08T06:06:28.455Z,64.41
2019-02-08T06:08:58.764Z,64.29
2019-02-08T06:11:29.319Z,64.02
2019-02-08T06:13:59.970Z,63.66
2019-02-08T06:16:30.428Z,63.54
2019-02-08T06:19:00.929Z,62.38
2019-02-08T06:21:31.421Z,63.07
2019-02-08T06:24:01.770Z,63.40
2019-02-08T06:26:32.035Z,63.22
2019-02-08T06:29:02.448Z,63.70
2019-02-08T06:31:33.001Z,64.16
2019-02-08T06:34:03.380Z,63.75
2019-02-08T06:36:33.888Z,64.02
2019-02-08T06:39:06.115Z,64.21
2019-02-08T06:41:36.898Z,64.51
2019-02-08T06:44:07.324Z,64.84
2019-02-08T06:46:37.600Z,64.94
2019-02-08T06:49:08.768Z,65.29
2019-02-08T06:51:39.257Z,65.31
2019-02-08T06:54:09.825Z,65.28
2019-02-08T06:56:56.677Z,64.96
2019-02-08T06:59:54.783Z,64.41
2019-02-08T07:02:50.213Z,64.56
2019-02-08T07:05:43.049Z,65.02
2019-02-08T07:08:44.906Z,64.62
2019-02-08T07:11:32.645Z,64.25
2019-02-08T07:14:20.633Z,64.61
2019-02-08T07:17:15.715Z,64.68
2019-02-08T07:20:13.181Z,64.32
2019-02-08T07:23:16.029Z,64.36
2019-02-08T07:26:14.598Z,64.92
2019-02-08T07:28:56.793Z,64.63
2019-02-08T07:31:45.257Z,63.83
2019-02-08T07:34:22.204Z,63.76
2019-02-08T07:37:15.337Z,64.15
2019-02-08T07:40:10.273Z,64.10
2019-02-08T07:43:00.523Z,63.58
2019-02-08T07:46:04.313Z,63.12
2019-02-08T07:48:47.745Z,63.01
2019-02-08T07:51:36.239Z,62.28
2019-02-08T07:54:34.522Z,62.89
2019-02-08T07:57:23.849Z,62.80
2019-02-08T08:00:07.293Z,61.90
2019-02-08T08:02:55.901Z,62.08
2019-02-08T08:05:43.621Z,62.19
2019-02-08T08:08:38.732Z,61.80
2019-02-08T08:11:26.992Z,62.43
2019-02-08T08:14:11.274Z,62.34
2019-02-08T08:17:00.498Z,62.02
2019-02-08T08:19:53.366Z,62.34
2019-02-08T08:22:31.841Z,61.22
2019-02-08T08:25:22.976Z,60.42
2019-02-08T08:28:16.697Z,60.08
2019-02-08T08:30:57.128Z,59.83
2019-02-08T08:34:01.116Z,59.87
2019-02-08T08:37:20.593Z,59.48
2019-02-08T08:40:19.062Z,59.40
2019-02-08T08:43:15.152Z,60.17
2019-02-08T08:46:01.717Z,59.31
2019-02-08T08:49:14.374Z,59.28
2019-02-08T08:52:25.890Z,58.65
2019-02-08T08:55:42.284Z,59.20
2019-02-08T08:58:42.083Z,58.03
2019-02-08T09:01:38.312Z,58.10
2019-02-08T09:04:36.262Z,56.96
2019-02-08T09:07:43.118Z,58.00
2019-02-08T09:10:47.506Z,57.74
2019-02-08T09:13:46.444Z,58.17
2019-02-08T09:17:12.214Z,58.71
2019-02-08T09:20:19.527Z,58.67
2019-02-08T09:23:36.632Z,58.03
2019-02-08T09:26:45.127Z,58.36
2019-02-08T09:29:40.608Z,59.00
2019-02-08T09:32:56.942Z,58.97
2019-02-08T09:36:11.154Z,58.54
2019-02-08T09:39:24.610Z,58.36
2019-02-08T09:42:30.955Z,58.30
2019-02-08T09:45:43.577Z,58.73
2019-02-08T09:48:35.654Z,57.77
2019-02-08T09:51:47.155Z,56.83
2019-02-08T09:55:13.378Z,56.44
2019-02-08T09:58:21.780Z,56.68
2019-02-08T10:01:32.699Z,56.94
2019-02-08T10:04:44.165Z,57.00
2019-02-08T10:07:47.669Z,56.47
2019-02-08T10:10:56.846Z,57.35
2019-02-08T10:14:23.455Z,57.78
2019-02-08T10:17:43.734Z,57.86
2019-02-08T10:20:37.760Z,57.63
2019-02-08T10:23:40.059Z,57.50
2019-02-08T10:27:06.838Z,57.74
2019-02-08T10:30:42.081Z,58.12
2019-02-08T10:33:49.144Z,58.26
2019-02-08T10:36:50.657Z,58.64
2019-02-08T10:39:58.052Z,57.88
2019-02-08T10:43:03.393Z,57.76
2019-02-08T10:46:33.180Z,58.41
2019-02-08T10:50:14.877Z,58.47
2019-02-08T10:53:38.178Z,58.79
2019-02-08T10:56:46.538Z,59.29
2019-02-08T11:00:13.540Z,59.27
2019-02-08T11:03:30.838Z,58.42
2019-02-08T11:07:06.711Z,58.95
2019-02-08T11:10:27.418Z,57.96
2019-02-08T11:13:34.791Z,58.79
2019-02-08T11:16:51.920Z,59.28
2019-02-08T11:19:23.788Z,59.25
2019-02-08T11:21:54.600Z,59.87
2019-02-08T11:24:26.269Z,60.26
2019-02-08T11:26:58.700Z,60.63
2019-02-08T11:29:29.483Z,60.23
2019-02-08T11:31:59.754Z,60.94
2019-02-08T11:34:30.577Z,60.89
2019-02-08T11:37:01.426Z,59.83
2019-02-08T11:39:31.752Z,59.77
2019-02-08T11:42:02.774Z,59.95
2019-02-08T11:44:33.092Z,60.11
2019-02-08T11:47:03.651Z,58.83
2019-02-08T11:49:34.410Z,58.66
2019-02-08T11:52:04.777Z,58.35
2019-02-08T11:54:35.108Z,58.68
2019-02-08T11:57:06.798Z,57.85
2019-02-08T11:59:37.117Z,57.85
2019-02-08T12:02:07.631Z,57.86
2019-02-08T12:04:38.453Z,57.32
2019-02-08T12:07:11.874Z,57.75
2019-02-08T12:09:42.226Z,57.64
2019-02-08T12:12:12.837Z,57.50
2019-02-08T12:14:43.146Z,56.12
2019-02-08T12:17:13.927Z,56.33
2019-02-08T12:19:44.213Z,57.52
2019-02-08T12:22:14.734Z,56.45
2019-02-08T12:24:45.487Z,57.14
2019-02-08T12:27:16.259Z,57.32
2019-02-08T12:29:46.524Z,57.33
2019-02-08T12:32:17.082Z,57.31
2019-02-08T12:34:47.738Z,57.22
2019-02-08T12:37:18.008Z,57.01
2019-02-08T12:39:48.671Z,57.45
2019-02-08T12:42:19.437Z,57.72
2019-02-08T12:44:49.718Z,57.43
2019-02-08T12:47:20.166Z,57.52
2019-02-08T12:49:50.853Z,58.24
2019-02-08T12:52:21.130Z,58.42
2019-02-08T12:54:51.399Z,58.12
2019-02-08T12:57:21.803Z,57.74
2019-02-08T12:59:52.100Z,57.56
2019-02-08T13:02:22.359Z,57.93
2019-02-08T13:04:53.432Z,58.26
2019-02-08T13:07:23.930Z,57.80
2019-02-08T13:09:55.362Z,57.62
2019-02-08T13:12:26.075Z,57.29
2019-02-08T13:14:56.840Z,57.14
2019-02-08T13:17:27.503Z,57.42
2019-02-08T13:19:57.932Z,57.86
2019-02-08T13:22:28.607Z,57.61
2019-02-08T13:24:59.330Z,57.10
2019-02-08T13:27:29.657Z,58.01
2019-02-08T13:29:59.942Z,57.57
2019-02-08T13:32:30.621Z,57.76
2019-02-08T13:35:02.503Z,57.89
2019-02-08T13:37:32.784Z,57.38
2019-02-08T13:40:03.573Z,57.30
2019-02-08T13:42:34.152Z,56.59
2019-02-08T13:45:05.237Z,57.24
2019-02-08T13:47:35.802Z,57.66
2019-02-08T13:50:09.334Z,57.55
2019-02-08T13:52:39.831Z,57.36
2019-02-08T13:55:11.555Z,57.11
2019-02-08T13:57:41.821Z,58.00
2019-02-08T14:00:18.569Z,57.45
2019-02-08T14:02:49.215Z,58.03
2019-02-08T14:05:19.879Z,58.42
2019-02-08T14:07:50.276Z,57.09
2019-02-08T14:10:21.146Z,56.70
2019-02-08T14:12:51.438Z,56.13
2019-02-08T14:15:22.523Z,56.87
2019-02-08T14:17:53.111Z,56.73
2019-02-08T14:20:24.611Z,56.78
2019-02-08T14:22:56.540Z,57.72
2019-02-08T14:25:27.030Z,58.09
2019-02-08T14:27:57.444Z,58.40
2019-02-08T14:30:32.458Z,58.28
2019-02-08T14:33:02.836Z,58.06
2019-02-08T14:35:33.508Z,58.84
2019-02-08T14:38:05.646Z,58.25
2019-02-08T14:40:36.557Z,58.12
2019-02-08T14:43:06.834Z,57.96
2019-02-08T14:45:37.503Z,56.85
2019-02-08T14:48:08.117Z,57.85
2019-02-08T14:50:38.665Z,58.11
2019-02-08T14:53:09.545Z,58.21
2019-02-08T14:55:40.371Z,57.17
2019-02-08T14:58:10.970Z,57.27
2019-02-08T15:00:41.532Z,57.47
2019-02-08T15:03:11.910Z,56.84
2019-02-08T15:05:43.156Z,57.06
2019-02-08T15:08:13.685Z,57.29
2019-02-08T15:10:46.649Z,57.22
2019-02-08T15:13:17.042Z,56.63
2019-02-08T15:15:47.574Z,57.08
2019-02-08T15:18:18.737Z,57.11
2019-02-08T15:20:49.129Z,57.21
2019-02-08T15:23:19.469Z,57.43
2019-02-08T15:25:50.305Z,57.09
2019-02-08T15:28:20.646Z,57.94
2019-02-08T15:30:51.218Z,57.44
2019-02-08T15:33:21.494Z,57.12
2019-02-08T15:35:51.882Z,57.36
2019-02-08T15:38:22.545Z,57.00
2019-02-08T15:40:55.364Z,56.91
2019-02-08T15:43:26.360Z,56.90
2019-02-08T15:45:59.544Z,56.30
2019-02-08T15:48:30.166Z,56.50
2019-02-08T15:51:01.542Z,57.45
2019-02-08T15:53:32.197Z,57.16
2019-02-08T15:56:09.506Z,57.47
2019-02-08T15:58:40.011Z,56.97
2019-02-08T16:01:11.896Z,56.90
2019-02-08T16:03:43.191Z,57.14
2019-02-08T16:06:13.588Z,56.70
2019-02-08T16:08:44.114Z,56.22
2019-02-08T16:11:14.459Z,55.52
2019-02-08T16:13:45.186Z,55.99
2019-02-08T16:16:16.116Z,56.64
2019-02-08T16:18:46.570Z,56.58
2019-02-08T16:21:17.443Z,56.31
2019-02-08T16:23:48.073Z,57.15
2019-02-08T16:26:18.500Z,57.25
2019-02-08T16:28:48.938Z,58.02
2019-02-08T16:31:19.333Z,58.16
2019-02-08T16:33:50.103Z,57.80
2019-02-08T16:36:20.499Z,57.45
2019-02-08T16:38:50.841Z,57.69
2019-02-08T16:41:21.518Z,58.50
2019-02-08T16:43:52.321Z,58.76
2019-02-08T16:46:22.637Z,59.30
2019-02-08T16:48:53.085Z,59.54
2019-02-08T16:51:23.961Z,59.79
2019-02-08T16:53:54.270Z,60.59
2019-02-08T16:56:24.735Z,60.84
2019-02-08T16:58:55.488Z,60.91
2019-02-08T17:01:25.792Z,60.66
2019-02-08T17:03:56.170Z,60.43
2019-02-08T17:06:26.528Z,60.29
2019-02-08T17:08:56.908Z,60.22
2019-02-08T17:11:27.475Z,60.12
2019-02-08T17:13:57.801Z,59.98
2019-02-08T17:16:28.216Z,59.81
2019-02-08T17:18:58.817Z,59.30
2019-02-08T17:21:29.528Z,59.48
2019-02-08T17:23:59.811Z,59.30
2019-02-08T17:26:30.461Z,59.20
2019-02-08T17:29:00.991Z,59.21
2019-02-08T17:31:31.316Z,59.29
2019-02-08T17:34:02.745Z,59.56
2019-02-08T17:36:33.082Z,59.13
2019-02-08T17:39:05.345Z,59.14
2019-02-08T17:41:35.633Z,58.87
2019-02-08T17:44:06.153Z,58.90
2019-02-08T17:46:36.828Z,58.99
2019-02-08T17:49:07.308Z,59.41
2019-02-08T17:51:37.619Z,59.47
2019-02-08T17:54:08.561Z,59.21
2019-02-08T17:56:39.222Z,59.49
2019-02-08T17:59:11.364Z,59.46
2019-02-08T18:01:42.053Z,59.20
2019-02-08T18:04:12.421Z,59.25
2019-02-08T18:06:42.805Z,58.96
2019-02-08T18:09:13.266Z,58.46
2019-02-08T18:11:43.599Z,58.77
2019-02-08T18:14:15.063Z,58.24
2019-02-08T18:16:45.798Z,58.63
2019-02-08T18:19:16.120Z,58.49
2019-02-08T18:21:46.727Z,58.63
2019-02-08T18:24:17.407Z,58.69
2019-02-08T18:26:47.900Z,58.43
2019-02-08T18:29:18.238Z,58.19
2019-02-08T18:31:48.949Z,58.51
2019-02-08T18:34:19.273Z,58.63
2019-02-08T18:36:49.610Z,58.52
2019-02-08T18:39:20.169Z,58.40
2019-02-08T18:41:50.854Z,58.32
2019-02-08T18:44:21.454Z,58.31
2019-02-08T18:46:52.150Z,58.40
2019-02-08T18:49:22.721Z,58.27
2019-02-08T18:51:53.521Z,58.19
2019-02-08T18:54:23.818Z,58.10
2019-02-08T18:56:54.168Z,58.25
2019-02-08T18:59:24.961Z,58.30
2019-02-08T19:01:55.220Z,58.28
2019-02-08T19:04:25.773Z,58.27
2019-02-08T19:06:56.519Z,58.19
2019-02-08T19:09:26.979Z,58.11
2019-02-08T19:11:57.294Z,58.47
2019-02-08T19:14:27.840Z,58.20
2019-02-08T19:16:58.418Z,57.77
2019-02-08T19:19:28.763Z,57.75
2019-02-08T19:21:59.524Z,57.79
2019-02-08T19:24:30.326Z,57.82
2019-02-08T19:27:00.607Z,57.48
2019-02-08T19:29:31.141Z,57.60
2019-02-08T19:32:01.523Z,57.56
2019-02-08T19:34:32.118Z,57.84
2019-02-08T19:37:03.067Z,57.30
2019-02-08T19:39:33.747Z,56.78
2019-02-08T19:42:04.123Z,57.55
2019-02-08T19:44:34.928Z,57.88
2019-02-08T19:47:05.285Z,58.10
2019-02-08T19:49:35.823Z,57.75
2019-02-08T19:52:06.878Z,58.41
2019-02-08T19:54:37.207Z,58.30
2019-02-08T19:57:07.475Z,58.58
2019-02-08T19:59:38.026Z,58.75
2019-02-08T20:02:08.291Z,58.82
2019-02-08T20:04:38.712Z,58.86
2019-02-08T20:07:09.538Z,58.55
2019-02-08T20:09:40.219Z,58.67
2019-02-08T20:12:10.490Z,58.80
2019-02-08T20:14:41.185Z,58.56
2019-02-08T20:17:11.781Z,58.45
2019-02-08T20:19:42.400Z,58.61
2019-02-08T20:22:12.899Z,58.81
2019-02-08T20:24:43.168Z,58.35
2019-02-08T20:27:13.874Z,59.21
2019-02-08T20:29:44.183Z,59.58
2019-02-08T20:32:14.473Z,59.63
2019-02-08T20:34:45.443Z,59.50
2019-02-08T20:37:16.308Z,59.71
2019-02-08T20:39:47.052Z,59.67
2019-02-08T20:42:17.853Z,59.58
2019-02-08T20:44:48.831Z,60.09
2019-02-08T20:47:19.219Z,60.20
2019-02-08T20:49:49.755Z,59.77
2019-02-08T20:52:20.036Z,59.58
2019-02-08T20:54:50.770Z,59.69
2019-02-08T20:57:21.332Z,60.08
2019-02-08T20:59:51.654Z,60.31
2019-02-08T21:02:22.934Z,60.34
2019-02-08T21:04:53.896Z,60.83
2019-02-08T21:07:24.175Z,60.38
2019-02-08T21:09:55.032Z,60.70
2019-02-08T21:12:26.600Z,61.46
2019-02-08T21:14:57.099Z,61.42
2019-02-08T21:17:27.407Z,62.32
2019-02-08T21:19:58.131Z,62.48
2019-02-08T21:22:28.918Z,63.33
2019-02-08T21:24:59.310Z,64.08
2019-02-08T21:27:29.577Z,63.63
2019-02-08T21:29:59.958Z,63.61
2019-02-08T21:32:30.730Z,64.10
2019-02-08T21:35:01.351Z,64.35
2019-02-08T21:37:31.650Z,64.33
2019-02-08T21:40:02.618Z,64.80
2019-02-08T21:42:32.929Z,64.93
2019-02-08T21:45:03.234Z,64.64
2019-02-08T21:47:34.010Z,64.89
2019-02-08T21:50:05.882Z,64.87
2019-02-08T21:52:36.719Z,64.87
2019-02-08T21:55:08.509Z,64.65
2019-02-08T21:57:38.814Z,64.89
2019-02-08T22:00:23.869Z,64.37
2019-02-08T22:02:54.568Z,64.26
2019-02-08T22:05:27.903Z,64.34
2019-02-08T22:07:58.639Z,64.30
2019-02-08T22:10:29.384Z,64.60
2019-02-08T22:12:59.678Z,64.75
2019-02-08T22:15:34.902Z,64.79
2019-02-08T22:18:06.577Z,64.66
2019-02-08T22:20:37.126Z,65.39
2019-02-08T22:23:07.764Z,64.48
2019-02-08T22:25:38.090Z,64.96
2019-02-08T22:28:08.721Z,64.30
2019-02-08T22:30:39.782Z,63.78
2019-02-08T22:33:10.194Z,63.41
2019-02-08T22:35:41.375Z,62.76
2019-02-08T22:38:12.247Z,62.68
2019-02-08T22:40:42.590Z,63.40
2019-02-08T22:43:13.396Z,62.66
2019-02-08T22:45:44.309Z,63.23
2019-02-08T22:48:14.596Z,63.17
2019-02-08T22:50:45.056Z,62.47
2019-02-08T22:53:15.405Z,62.93
2019-02-08T22:55:45.880Z,62.53
2019-02-08T22:58:16.232Z,61.83
2019-02-08T23:01:30.937Z,61.21
2019-02-08T23:04:03.958Z,60.64
2019-02-08T23:06:34.820Z,60.75
2019-02-08T23:09:25.587Z,60.72
2019-02-08T23:11:56.180Z,60.73
2019-02-08T23:14:26.877Z,60.47
2019-02-08T23:16:57.145Z,60.28
2019-02-08T23:19:27.687Z,60.42
2019-02-08T23:21:58.449Z,59.64
2019-02-08T23:24:28.708Z,60.66
2019-02-08T23:26:59.003Z,60.22
2019-02-08T23:29:30.574Z,60.04
2019-02-08T23:32:01.250Z,60.03
2019-02-08T23:34:31.641Z,59.80
2019-02-08T23:37:02.466Z,59.71
2019-02-08T23:39:33.180Z,58.95
2019-02-08T23:42:03.492Z,58.73
2019-02-08T23:44:34.139Z,59.12
2019-02-08T23:47:04.909Z,58.94
2019-02-08T23:49:35.569Z,58.53
2019-02-08T23:52:06.089Z,58.73
2019-02-08T23:54:36.699Z,58.96
2019-02-08T23:57:08.067Z,59.21
2019-02-08T23:59:38.534Z,58.92
